Time,TemperatureF,DewpointF,PressureIn,WindDirection,WindDirectionDegrees,WindSpeedMPH,WindSpeedGustMPH,Humidity,HourlyPrecipIn,Conditions,Clouds,dailyrainin,SoftwareType,DateUTC
2013-02-04 00:07:00,49.1,37.0,30.06,NNE,14,1.0,3.0,63,0.00,,,0.00,weatherlink.com 1.10,2013-02-04 05:07:00,
2013-02-04 00:22:00,48.9,36.0,30.05,North,349,1.0,3.0,62,0.00,,,0.00,weatherlink.com 1.10,2013-02-04 05:22:00,
2013-02-04 00:37:00,48.4,36.0,30.05,NW,324,0.0,2.0,62,0.00,,,0.00,weatherlink.com 1.10,2013-02-04 05:37:00,
2013-02-04 00:52:00,47.9,35.0,30.06,NNE,30,0.0,2.0,62,0.00,,,0.00,weatherlink.com 1.10,2013-02-04 05:52:00,
2013-02-04 01:07:00,47.4,36.0,30.06,WNW,287,0.0,2.0,64,0.00,,,0.00,weatherlink.com 1.10,2013-02-04 06:07:00,
2013-02-04 01:22:00,47.6,35.0,30.07,WSW,255,0.0,3.0,62,0.00,,,0.00,weatherlink.com 1.10,2013-02-04 06:22:00,
2013-02-04 01:37:00,47.4,35.0,30.07,NNE,33,1.0,2.0,63,0.00,,,0.00,weatherlink.com 1.10,2013-02-04 06:37:00,
2013-02-04 01:52:00,47.7,35.0,30.06,NW,307,1.0,3.0,62,0.00,,,0.00,weatherlink.com 1.10,2013-02-04 06:52:00,
2013-02-04 02:07:00,47.8,35.0,30.06,WNW,298,0.0,3.0,61,0.00,,,0.00,weatherlink.com 1.10,2013-02-04 07:07:00,
2013-02-04 02:22:00,47.8,34.0,30.06,North,8,2.0,3.0,60,0.00,,,0.00,weatherlink.com 1.10,2013-02-04 07:22:00,
2013-02-04 02:37:00,47.2,34.0,30.05,NW,316,1.0,1.0,61,0.00,,,0.00,weatherlink.com 1.10,2013-02-04 07:37:00,
2013-02-04 02:52:00,46.2,34.0,30.05,NNW,332,1.0,1.0,63,0.00,,,0.00,weatherlink.com 1.10,2013-02-04 07:52:00,
2013-02-04 03:08:00,45.7,34.0,30.05,NNW,332,0.0,2.0,64,0.00,,,0.00,weatherlink.com 1.10,2013-02-04 08:08:00,
2013-02-04 08:24:00,42.6,35.0,30.13,North,359,0.0,1.0,75,0.00,,,0.00,weatherlink.com 1.10,2013-02-04 13:24:00,
2013-02-04 08:39:00,44.7,36.0,30.13,NNE,33,1.0,3.0,71,0.00,,,0.00,weatherlink.com 1.10,2013-02-04 13:39:00,
2013-02-04 08:54:00,45.9,35.0,30.13,NNE,23,2.0,3.0,66,0.00,,,0.00,weatherlink.com 1.10,2013-02-04 13:54:00,
2013-02-04 09:09:00,46.8,34.0,30.14,NW,315,3.0,5.0,61,0.00,,,0.00,weatherlink.com 1.10,2013-02-04 14:09:00,
2013-02-04 09:24:00,47.1,33.0,30.14,WNW,301,1.0,5.0,58,0.00,,,0.00,weatherlink.com 1.10,2013-02-04 14:24:00,
2013-02-04 09:39:00,47.6,33.0,30.14,NE,51,0.0,4.0,57,0.00,,,0.00,weatherlink.com 1.10,2013-02-04 14:39:00,
2013-02-04 09:54:00,48.1,34.0,30.14,NNW,344,0.0,5.0,59,0.00,,,0.00,weatherlink.com 1.10,2013-02-04 14:54:00,
2013-02-04 10:09:00,48.8,34.0,30.14,NE,47,1.0,4.0,58,0.00,,,0.00,weatherlink.com 1.10,2013-02-04 15:09:00,
2013-02-04 10:24:00,49.5,33.0,30.14,East,94,3.0,6.0,53,0.00,,,0.00,weatherlink.com 1.10,2013-02-04 15:24:00,
2013-02-04 10:39:00,50.6,34.0,30.13,ESE,116,2.0,4.0,54,0.00,,,0.00,weatherlink.com 1.10,2013-02-04 15:39:00,
2013-02-04 10:54:00,51.0,34.0,30.12,North,354,2.0,6.0,53,0.00,,,0.00,weatherlink.com 1.10,2013-02-04 15:54:00,
2013-02-04 11:09:00,51.7,34.0,30.12,ESE,118,0.0,4.0,51,0.00,,,0.00,weatherlink.com 1.10,2013-02-04 16:09:00,
2013-02-04 11:24:00,52.4,34.0,30.13,East,85,5.0,6.0,49,0.00,,,0.00,weatherlink.com 1.10,2013-02-04 16:24:00,
2013-02-04 11:39:00,52.8,34.0,30.12,SSE,159,3.0,6.0,49,0.00,,,0.00,weatherlink.com 1.10,2013-02-04 16:39:00,
2013-02-04 11:54:00,53.0,34.0,30.13,SE,146,1.0,6.0,48,0.00,,,0.00,weatherlink.com 1.10,2013-02-04 16:54:00,
2013-02-04 12:09:00,53.9,37.0,30.12,SSW,210,1.0,3.0,54,0.00,,,0.00,weatherlink.com 1.10,2013-02-04 17:09:00,
2013-02-04 12:39:00,52.9,34.0,30.10,ESE,110,3.0,7.0,49,0.00,,,0.00,weatherlink.com 1.10,2013-02-04 17:39:00,
2013-02-04 12:54:00,53.5,37.0,30.10,South,181,2.0,4.0,55,0.00,,,0.00,weatherlink.com 1.10,2013-02-04 17:54:00,
2013-02-04 13:09:00,54.0,37.0,30.10,South,186,1.0,3.0,54,0.00,,,0.00,weatherlink.com 1.10,2013-02-04 18:09:00,
2013-02-04 13:24:00,54.7,36.0,30.08,ESE,123,1.0,5.0,50,0.00,,,0.00,weatherlink.com 1.10,2013-02-04 18:24:00,
2013-02-04 13:39:00,54.6,32.0,30.08,WNW,292,2.0,5.0,43,0.00,,,0.00,weatherlink.com 1.10,2013-02-04 18:39:00,
2013-02-04 13:54:00,53.4,34.0,30.08,WNW,295,3.0,5.0,48,0.00,,,0.00,weatherlink.com 1.10,2013-02-04 18:54:00,
2013-02-04 14:09:00,54.6,32.0,30.09,West,280,3.0,5.0,43,0.00,,,0.00,weatherlink.com 1.10,2013-02-04 19:09:00,
2013-02-04 14:24:00,54.6,32.0,30.09,WNW,285,3.0,6.0,43,0.00,,,0.00,weatherlink.com 1.10,2013-02-04 19:24:00,
2013-02-04 14:39:00,53.5,32.0,30.08,West,263,1.0,4.0,44,0.00,,,0.00,weatherlink.com 1.10,2013-02-04 19:39:00,
2013-02-04 14:54:00,53.8,32.0,30.08,West,259,1.0,4.0,43,0.00,,,0.00,weatherlink.com 1.10,2013-02-04 19:54:00,
2013-02-04 15:09:00,54.6,33.0,30.08,South,173,1.0,2.0,45,0.00,,,0.00,weatherlink.com 1.10,2013-02-04 20:09:00,
2013-02-04 15:24:00,54.4,33.0,30.07,NNW,327,2.0,2.0,45,0.00,,,0.00,weatherlink.com 1.10,2013-02-04 20:24:00,
2013-02-04 15:39:00,54.0,37.0,30.08,SSE,162,0.0,3.0,52,0.00,,,0.00,weatherlink.com 1.10,2013-02-04 20:39:00,
2013-02-04 15:54:00,54.5,36.0,30.07,South,169,2.0,5.0,51,0.00,,,0.00,weatherlink.com 1.10,2013-02-04 20:54:00,
2013-02-04 16:09:00,53.2,37.0,30.08,South,187,4.0,6.0,54,0.00,,,0.00,weatherlink.com 1.10,2013-02-04 21:09:00,
2013-02-04 16:24:00,52.0,37.0,30.08,SSE,162,2.0,5.0,57,0.00,,,0.00,weatherlink.com 1.10,2013-02-04 21:24:00,
2013-02-04 17:10:00,51.1,37.0,30.08,SSE,167,0.0,3.0,58,0.00,,,0.00,weatherlink.com 1.10,2013-02-04 22:10:00,
2013-02-04 17:25:00,50.9,36.0,30.08,SSE,164,0.0,4.0,58,0.00,,,0.00,weatherlink.com 1.10,2013-02-04 22:25:00,
2013-02-04 17:40:00,50.3,37.0,30.07,SSE,153,3.0,4.0,61,0.00,,,0.00,weatherlink.com 1.10,2013-02-04 22:40:00,
2013-02-04 17:55:00,49.9,38.0,30.07,SSE,155,1.0,4.0,63,0.00,,,0.00,weatherlink.com 1.10,2013-02-04 22:55:00,
2013-02-04 18:10:00,49.6,38.0,30.07,SSE,160,1.0,3.0,65,0.00,,,0.00,weatherlink.com 1.10,2013-02-04 23:10:00,
2013-02-04 18:25:00,49.5,38.0,30.06,SE,139,1.0,4.0,65,0.00,,,0.00,weatherlink.com 1.10,2013-02-04 23:25:00,
2013-02-04 18:40:00,49.4,39.0,30.07,SSE,156,2.0,3.0,67,0.00,,,0.00,weatherlink.com 1.10,2013-02-04 23:40:00,
2013-02-04 18:55:00,49.6,39.0,30.07,SE,130,1.0,4.0,67,0.00,,,0.00,weatherlink.com 1.10,2013-02-04 23:55:00,
2013-02-04 19:10:00,49.2,39.0,30.07,ESE,118,0.0,2.0,67,0.00,,,0.00,weatherlink.com 1.10,2013-02-05 00:10:00,
2013-02-04 19:25:00,48.7,39.0,30.07,SE,125,0.0,1.0,69,0.00,,,0.00,weatherlink.com 1.10,2013-02-05 00:25:00,
2013-02-04 19:40:00,47.5,39.0,30.07,SE,125,0.0,0.0,72,0.00,,,0.00,weatherlink.com 1.10,2013-02-05 00:40:00,
2013-02-04 19:55:00,46.1,39.0,30.07,SE,126,0.0,0.0,75,0.00,,,0.00,weatherlink.com 1.10,2013-02-05 00:55:00,
2013-02-04 20:10:00,45.2,38.0,30.08,SE,125,0.0,0.0,76,0.00,,,0.00,weatherlink.com 1.10,2013-02-05 01:10:00,
2013-02-04 20:25:00,44.5,39.0,30.08,SE,125,0.0,0.0,80,0.00,,,0.00,weatherlink.com 1.10,2013-02-05 01:25:00,
2013-02-04 20:40:00,43.9,39.0,30.07,SE,125,0.0,0.0,82,0.00,,,0.00,weatherlink.com 1.10,2013-02-05 01:40:00,
2013-02-04 20:55:00,43.2,39.0,30.07,SE,126,0.0,0.0,84,0.00,,,0.00,weatherlink.com 1.10,2013-02-05 01:55:00,
2013-02-04 21:25:00,44.1,40.0,30.07,SE,125,0.0,0.0,84,0.00,,,0.00,weatherlink.com 1.10,2013-02-05 02:25:00,
2013-02-04 21:40:00,44.1,40.0,30.07,SE,125,0.0,0.0,84,0.00,,,0.00,weatherlink.com 1.10,2013-02-05 02:40:00,
2013-02-04 21:55:00,44.4,40.0,30.07,SE,125,0.0,0.0,85,0.00,,,0.00,weatherlink.com 1.10,2013-02-05 02:55:00,
2013-02-04 22:10:00,45.1,41.0,30.08,ESE,121,0.0,1.0,84,0.00,,,0.00,weatherlink.com 1.10,2013-02-05 03:10:00,
2013-02-04 22:25:00,44.7,41.0,30.08,ESE,122,0.0,0.0,85,0.00,,,0.00,weatherlink.com 1.10,2013-02-05 03:25:00,
2013-02-04 22:40:00,45.8,42.0,30.08,ESE,122,0.0,1.0,85,0.00,,,0.00,weatherlink.com 1.10,2013-02-05 03:40:00,
2013-02-04 22:55:00,45.6,41.0,30.08,ESE,122,0.0,0.0,84,0.00,,,0.00,weatherlink.com 1.10,2013-02-05 03:55:00,
2013-02-04 23:10:00,45.4,42.0,30.08,ESE,123,0.0,0.0,86,0.00,,,0.00,weatherlink.com 1.10,2013-02-05 04:10:00,
2013-02-04 23:25:00,45.0,41.0,30.07,ESE,122,0.0,0.0,86,0.00,,,0.00,weatherlink.com 1.10,2013-02-05 04:25:00,
2013-02-04 23:40:00,44.3,41.0,30.07,ESE,123,0.0,0.0,87,0.00,,,0.00,weatherlink.com 1.10,2013-02-05 04:40:00,
2013-02-04 23:55:00,43.5,41.0,30.07,ESE,123,0.0,0.0,89,0.00,,,0.00,weatherlink.com 1.10,2013-02-05 04:55:00,